Time;durP1;ratioP1;P1;durP2;ratioP2;P2;SDS_P1;SDS_P2;PMS_P1;PMS_P2;Temp;Humidity;BMP_temperature;BMP_pressure;BME280_temperature;BME280_humidity;BME280_pressure;Samples;Min_cycle;Max_cycle;Signal;HPM_P1;HPM_P2
2023/01/16 00:00:24;;;;;;;5.13;2.53;;;;;;;7.00;nan;99634.88;6220423;28;20511;-73
2023/01/16 00:03:45;;;;;;;3.47;1.67;;;;;;;7.14;nan;99626.38;6215352;28;20619;-71
2023/01/16 00:07:07;;;;;;;3.63;2.53;;;;;;;6.91;nan;99628.53;6217107;28;20232;-73
2023/01/16 00:10:28;;;;;;;1.93;1.83;;;;;;;6.97;nan;99635.16;6219438;28;20304;-72
2023/01/16 00:13:49;;;;;;;3.10;2.67;;;;;;;6.89;nan;99618.94;6222008;28;20682;-71
2023/01/16 00:17:09;;;;;;;3.87;2.37;;;;;;;6.98;nan;99620.78;6217859;28;20237;-71
2023/01/16 00:20:30;;;;;;;9.53;3.50;;;;;;;7.17;nan;99610.88;6217695;28;20228;-71
2023/01/16 00:23:53;;;;;;;3.40;2.63;;;;;;;7.08;nan;99606.38;6221849;28;20233;-70
2023/01/16 00:27:14;;;;;;;3.70;2.00;;;;;;;7.13;nan;99605.94;6219649;28;20315;-71
2023/01/16 00:30:35;;;;;;;5.40;3.47;;;;;;;7.04;nan;99601.44;6201901;28;20244;-71
2023/01/16 00:33:56;;;;;;;2.57;2.37;;;;;;;6.98;nan;99599.34;6205121;28;20335;-70
2023/01/16 00:37:17;;;;;;;6.47;2.13;;;;;;;7.00;nan;99598.22;6218627;28;20576;-71
2023/01/16 00:40:39;;;;;;;1.60;1.50;;;;;;;6.95;nan;99595.09;6223634;28;20236;-71
2023/01/16 00:44:00;;;;;;;1.70;1.60;;;;;;;7.22;nan;99594.31;6225677;28;20275;-71
2023/01/16 00:47:21;;;;;;;3.37;3.07;;;;;;;7.21;nan;99588.13;6218111;28;20236;-71
2023/01/16 00:50:42;;;;;;;6.80;2.57;;;;;;;7.28;nan;99585.69;6220830;28;20696;-72
2023/01/16 00:54:03;;;;;;;2.23;2.03;;;;;;;7.30;nan;99588.25;6223225;28;20284;-71
2023/01/16 00:57:25;;;;;;;1.03;1.00;;;;;;;7.01;nan;99588.31;6222308;28;20646;-72
2023/01/16 01:00:46;;;;;;;1.70;1.60;;;;;;;7.16;nan;99594.91;6221638;28;20233;-71
2023/01/16 01:04:07;;;;;;;5.17;1.63;;;;;;;7.12;nan;99580.13;6210652;28;20232;-70
2023/01/16 01:07:28;;;;;;;2.13;2.03;;;;;;;7.03;nan;99584.50;6220357;28;20575;-71
2023/01/16 01:10:49;;;;;;;2.40;1.73;;;;;;;7.36;nan;99575.09;6220741;28;20228;-72
2023/01/16 01:14:11;;;;;;;5.57;2.07;;;;;;;7.12;nan;99589.00;6224090;28;20258;-72
2023/01/16 01:17:31;;;;;;;1.93;1.80;;;;;;;7.10;nan;99598.19;6222622;28;20335;-72
2023/01/16 01:20:52;;;;;;;3.43;1.80;;;;;;;7.05;nan;99579.03;6214679;28;20236;-71
2023/01/16 01:24:13;;;;;;;1.53;1.43;;;;;;;7.11;nan;99570.41;6223352;28;20534;-72
2023/01/16 01:27:33;;;;;;;4.97;1.80;;;;;;;7.41;nan;99578.16;6223725;28;20252;-71
2023/01/16 01:30:55;;;;;;;4.40;2.37;;;;;;;7.52;nan;99564.56;6213107;28;20237;-71
2023/01/16 01:34:16;;;;;;;4.10;1.47;;;;;;;7.28;nan;99558.88;6223878;28;20617;-71
2023/01/16 01:37:37;;;;;;;3.57;1.93;;;;;;;7.28;nan;99555.38;6211842;28;20236;-70
2023/01/16 01:40:58;;;;;;;4.57;1.40;;;;;;;7.41;nan;99566.59;6209972;28;20318;-70
2023/01/16 01:44:55;;;;;;;3.00;1.20;;;;;;;7.27;nan;99551.84;6196821;28;20624;-71
2023/01/16 01:48:24;;;;;;;2.07;1.30;;;;;;;7.23;nan;99543.28;6206381;28;20260;-70
2023/01/16 01:51:45;;;;;;;2.30;2.10;;;;;;;7.28;nan;99546.34;6218918;28;21586;-71
2023/01/16 01:55:10;;;;;;;1.97;1.50;;;;;;;7.13;nan;99533.59;6203883;28;20236;-70
2023/01/16 01:58:33;;;;;;;2.03;1.53;;;;;;;7.37;nan;99528.53;6190860;28;20694;-70
2023/01/16 02:01:55;;;;;;;2.33;1.10;;;;;;;7.67;nan;99519.31;6215090;28;21120;-71
2023/01/16 02:05:22;;;;;;;1.37;1.10;;;;;;;7.63;nan;99515.25;6205495;28;20228;-70
2023/01/16 02:08:44;;;;;;;1.00;1.00;;;;;;;7.15;nan;99519.03;6192833;28;20232;-70
2023/01/16 02:12:10;;;;;;;1.17;1.07;;;;;;;7.00;nan;99511.63;6219512;28;20236;-71
2023/01/16 02:15:31;;;;;;;1.23;1.20;;;;;;;7.09;nan;99513.44;6228308;28;20232;-70
2023/01/16 02:22:49;;;;;;;2.27;1.40;;;;;;;7.41;nan;99492.38;6215365;28;20232;-70
2023/01/16 02:26:37;;;;;;;1.10;1.10;;;;;;;7.46;nan;99495.47;6225540;28;20313;-71
2023/01/16 02:30:15;;;;;;;1.30;1.20;;;;;;;7.16;nan;99493.06;6213751;28;20233;-71
2023/01/16 02:33:52;;;;;;;2.73;1.00;;;;;;;7.49;nan;99489.78;6203505;28;20228;-71
2023/01/16 02:37:22;;;;;;;2.50;1.30;;;;;;;7.16;nan;99499.28;6224314;28;20326;-70
2023/01/16 02:40:52;;;;;;;2.93;1.33;;;;;;;7.13;nan;99483.50;6223034;28;20278;-71
2023/01/16 02:44:24;;;;;;;1.93;1.07;;;;;;;7.03;nan;99479.19;6214168;28;20514;-71
2023/01/16 02:47:52;;;;;;;3.83;1.20;;;;;;;7.36;nan;99477.75;6216707;28;20228;-70
2023/01/16 02:51:21;;;;;;;3.17;1.53;;;;;;;7.15;nan;99462.75;6224236;28;20740;-71
2023/01/16 02:54:52;;;;;;;3.93;2.43;;;;;;;7.17;nan;99465.31;6216377;28;20315;-72
2023/01/16 02:58:14;;;;;;;4.67;1.60;;;;;;;7.24;nan;99461.88;6212006;28;20228;-71
2023/01/16 03:01:40;;;;;;;3.60;1.20;;;;;;;7.42;nan;99464.59;6225115;28;20705;-71
2023/01/16 03:05:00;;;;;;;1.50;1.40;;;;;;;7.10;nan;99458.84;6215804;28;20225;-70
2023/01/16 03:08:35;;;;;;;0.83;0.83;;;;;;;7.09;nan;99446.44;6204923;28;20626;-71
2023/01/16 03:12:15;;;;;;;2.87;2.70;;;;;;;7.36;nan;99442.91;6216868;28;21104;-71
2023/01/16 03:15:45;;;;;;;1.67;1.57;;;;;;;7.06;nan;99441.38;6228144;28;20237;-70
2023/01/16 03:19:16;;;;;;;1.33;1.00;;;;;;;7.25;nan;99434.09;6218105;28;20255;-71
2023/01/16 03:22:42;;;;;;;1.13;1.10;;;;;;;7.25;nan;99427.88;6215645;28;20247;-71
2023/01/16 03:26:10;;;;;;;1.40;1.00;;;;;;;7.58;nan;99429.03;6212047;28;20240;-71
2023/01/16 03:29:36;;;;;;;0.90;0.90;;;;;;;7.40;nan;99412.13;6214655;28;20236;-70
2023/01/16 03:33:02;;;;;;;1.80;1.27;;;;;;;7.25;nan;99406.44;6207797;28;20233;-71
2023/01/16 03:36:30;;;;;;;0.87;0.87;;;;;;;7.26;nan;99403.59;6215471;28;20256;-71
2023/01/16 03:39:57;;;;;;;1.90;1.80;;;;;;;7.17;nan;99409.03;6184694;28;20240;-70
2023/01/16 03:43:24;;;;;;;3.87;2.07;;;;;;;7.08;nan;99401.88;6205048;28;20413;-70
2023/01/16 03:46:49;;;;;;;3.60;1.47;;;;;;;7.37;nan;99391.81;6221389;28;20228;-71
2023/01/16 03:50:13;;;;;;;1.33;1.20;;;;;;;7.33;nan;99378.84;6197790;28;20657;-71
2023/01/16 03:53:39;;;;;;;1.17;1.07;;;;;;;7.32;nan;99382.56;6197715;28;20308;-71
2023/01/16 03:57:09;;;;;;;4.27;1.60;;;;;;;7.09;nan;99377.59;6219986;28;20239;-70
2023/01/16 04:00:38;;;;;;;1.43;1.33;;;;;;;6.81;nan;99375.97;6222434;28;21096;-70
2023/01/16 04:04:04;;;;;;;1.40;1.07;;;;;;;6.78;nan;99364.72;6211146;28;20318;-71
2023/01/16 04:07:34;;;;;;;5.90;1.53;;;;;;;7.05;nan;99378.09;6208265;28;20346;-71
2023/01/16 04:10:56;;;;;;;1.53;1.43;;;;;;;7.13;nan;99370.13;6221197;28;20745;-71
2023/01/16 04:14:20;;;;;;;3.63;1.53;;;;;;;7.14;nan;99363.75;6207441;28;20224;-72
2023/01/16 04:17:43;;;;;;;2.87;0.97;;;;;;;7.03;nan;99359.47;6207987;28;20363;-71
2023/01/16 04:21:05;;;;;;;2.90;1.17;;;;;;;7.18;nan;99351.75;6221145;28;20433;-71
2023/01/16 04:24:26;;;;;;;3.63;1.03;;;;;;;7.36;nan;99341.03;6213926;28;20670;-71
2023/01/16 04:27:47;;;;;;;0.97;0.90;;;;;;;7.06;nan;99345.78;6204606;28;20535;-72
2023/01/16 04:31:08;;;;;;;0.90;0.90;;;;;;;7.09;nan;99336.59;6218138;28;20236;-72
2023/01/16 04:34:30;;;;;;;1.20;1.20;;;;;;;7.24;nan;99330.53;6196315;28;20233;-71
2023/01/16 04:37:51;;;;;;;6.33;1.50;;;;;;;7.43;nan;99318.81;6209551;28;20232;-71
2023/01/16 04:41:12;;;;;;;1.10;1.00;;;;;;;7.42;nan;99317.16;6220292;28;20236;-72
2023/01/16 04:44:33;;;;;;;2.50;1.83;;;;;;;7.37;nan;99313.22;6207557;28;21066;-70
2023/01/16 04:47:54;;;;;;;1.77;0.97;;;;;;;7.20;nan;99304.19;6208575;28;20244;-71
2023/01/16 04:51:16;;;;;;;0.83;0.83;;;;;;;7.43;nan;99301.88;6210492;28;20232;-71
2023/01/16 04:54:37;;;;;;;1.07;0.80;;;;;;;7.27;nan;99302.59;6211112;28;20248;-69
2023/01/16 04:57:58;;;;;;;3.23;1.00;;;;;;;7.46;nan;99299.75;6207585;28;20244;-71
2023/01/16 05:01:19;;;;;;;0.90;0.90;;;;;;;7.47;nan;99292.56;6218649;28;20266;-70
2023/01/16 05:04:40;;;;;;;1.47;1.37;;;;;;;7.39;nan;99297.81;6194168;28;20233;-71
2023/01/16 05:08:18;;;;;;;3.20;1.33;;;;;;;7.47;nan;99284.53;6202789;28;20241;-70
2023/01/16 05:11:39;;;;;;;1.30;1.20;;;;;;;7.29;nan;99295.25;6204915;28;20236;-70
2023/01/16 05:14:59;;;;;;;1.07;1.07;;;;;;;6.95;nan;99281.69;6189738;28;20606;-70
2023/01/16 05:18:20;;;;;;;0.70;0.70;;;;;;;7.17;nan;99288.44;6212530;28;20775;-71
2023/01/16 05:21:41;;;;;;;0.77;0.70;;;;;;;7.32;nan;99275.34;6216683;28;20260;-71
2023/01/16 05:25:04;;;;;;;1.43;0.93;;;;;;;7.18;nan;99277.56;6193337;28;20319;-72
2023/01/16 05:28:25;;;;;;;4.17;1.00;;;;;;;7.17;nan;99272.38;6197848;28;20229;-71
2023/01/16 05:31:46;;;;;;;1.07;1.00;;;;;;;7.32;nan;99272.66;6209539;28;20236;-71
2023/01/16 05:35:07;;;;;;;1.43;1.00;;;;;;;7.26;nan;99266.91;6191285;28;20229;-71
2023/01/16 05:38:28;;;;;;;1.57;0.90;;;;;;;7.60;nan;99260.78;6207504;28;20233;-70
2023/01/16 05:41:50;;;;;;;3.00;1.03;;;;;;;7.66;nan;99255.66;6195715;28;21382;-71
2023/01/16 05:45:12;;;;;;;0.83;0.83;;;;;;;7.32;nan;99254.75;6209945;28;20244;-70
2023/01/16 05:48:32;;;;;;;3.63;1.13;;;;;;;7.24;nan;99258.19;6204085;28;20236;-70
2023/01/16 05:51:53;;;;;;;2.47;1.43;;;;;;;6.90;nan;99251.03;6223954;28;20250;-70
2023/01/16 05:55:14;;;;;;;0.60;0.60;;;;;;;7.00;nan;99241.06;6213200;28;20236;-70
2023/01/16 05:58:37;;;;;;;1.17;1.07;;;;;;;7.25;nan;99240.28;6204692;28;20245;-70
2023/01/16 06:01:58;;;;;;;1.27;0.80;;;;;;;7.18;nan;99231.16;6221133;28;20229;-70
2023/01/16 06:05:19;;;;;;;0.90;0.90;;;;;;;6.96;nan;99239.69;6202634;28;20225;-70
2023/01/16 06:08:40;;;;;;;4.53;2.50;;;;;;;7.15;nan;99234.97;6217369;28;20240;-70
2023/01/16 06:12:00;;;;;;;1.70;1.60;;;;;;;7.34;nan;99217.06;6224915;28;20570;-71
2023/01/16 06:15:23;;;;;;;3.23;1.67;;;;;;;7.29;nan;99220.19;6230123;28;20263;-70
2023/01/16 06:18:44;;;;;;;1.07;1.07;;;;;;;7.12;nan;99219.22;6212531;28;20240;-71
2023/01/16 06:22:05;;;;;;;1.33;0.70;;;;;;;6.88;nan;99218.19;6221849;28;20232;-70
2023/01/16 06:25:26;;;;;;;1.43;0.77;;;;;;;7.36;nan;99210.56;6225110;28;20672;-71
2023/01/16 06:28:47;;;;;;;1.77;1.30;;;;;;;7.40;nan;99211.91;6216177;28;20319;-70
2023/01/16 06:32:09;;;;;;;2.00;0.80;;;;;;;7.12;nan;99211.19;6228775;28;20603;-71
2023/01/16 06:35:30;;;;;;;1.03;1.03;;;;;;;6.87;nan;99214.66;6230274;28;20232;-70
2023/01/16 06:38:51;;;;;;;1.17;0.80;;;;;;;7.28;nan;99196.25;6211781;28;20620;-70
2023/01/16 06:42:12;;;;;;;0.73;0.73;;;;;;;7.43;nan;99189.28;6224275;28;20236;-70
2023/01/16 06:45:33;;;;;;;0.90;0.90;;;;;;;7.41;nan;99188.59;6223253;28;20229;-69
2023/01/16 06:48:55;;;;;;;4.27;1.43;;;;;;;7.25;nan;99184.00;6198980;28;20233;-70
2023/01/16 06:52:16;;;;;;;1.30;0.97;;;;;;;7.50;nan;99188.53;6216377;28;20232;-70
2023/01/16 06:55:37;;;;;;;2.73;1.10;;;;;;;7.25;nan;99184.84;6224473;28;20315;-69
2023/01/16 06:58:58;;;;;;;1.60;1.07;;;;;;;6.94;nan;99185.44;6213476;28;20237;-68
2023/01/16 07:02:19;;;;;;;1.30;1.20;;;;;;;7.24;nan;99177.78;6209793;28;20232;-70
2023/01/16 07:05:41;;;;;;;1.30;1.10;;;;;;;7.15;nan;99167.19;6207059;28;20291;-71
2023/01/16 07:09:02;;;;;;;0.77;0.70;;;;;;;7.17;nan;99162.50;6213341;28;20237;-73
2023/01/16 07:12:23;;;;;;;3.03;0.83;;;;;;;7.07;nan;99154.53;6213849;28;20236;-72
2023/01/16 07:23:16;;;;;;;1.00;0.70;;;;;;;7.21;nan;99148.63;6208875;28;20236;-70
2023/01/16 07:26:40;;;;;;;2.33;1.43;;;;;;;7.08;nan;99150.03;6211161;28;21731;-72
2023/01/16 07:30:01;;;;;;;2.07;0.80;;;;;;;6.75;nan;99142.75;6203415;28;20224;-72
2023/01/16 07:33:22;;;;;;;1.33;1.23;;;;;;;6.71;nan;99144.91;6199722;28;20233;-71
2023/01/16 07:36:43;;;;;;;1.17;0.93;;;;;;;6.68;nan;99139.00;6215581;28;20632;-70
2023/01/16 07:40:07;;;;;;;1.47;0.93;;;;;;;6.58;nan;99131.06;6196690;28;20245;-70
2023/01/16 07:43:28;;;;;;;1.73;1.67;;;;;;;6.61;nan;99138.78;6196379;28;20839;-71
2023/01/16 07:46:49;;;;;;;0.90;0.90;;;;;;;6.89;nan;99136.81;6212652;28;20558;-69
2023/01/16 07:50:11;;;;;;;13.47;2.17;;;;;;;6.91;nan;99135.69;6204832;28;20279;-70
2023/01/16 07:53:32;;;;;;;3.07;1.20;;;;;;;6.75;nan;99129.34;6209745;28;20236;-70
2023/01/16 07:56:54;;;;;;;7.17;1.40;;;;;;;7.03;nan;99120.22;6220467;28;20232;-70
2023/01/16 08:00:15;;;;;;;0.70;0.70;;;;;;;7.01;nan;99119.50;6206092;28;20530;-69
2023/01/16 08:03:36;;;;;;;0.60;0.60;;;;;;;7.19;nan;99105.09;6206633;28;20228;-73
2023/01/16 08:06:57;;;;;;;4.93;1.03;;;;;;;7.19;nan;99101.56;6216668;28;20229;-71
2023/01/16 08:10:18;;;;;;;2.00;0.80;;;;;;;6.83;nan;99103.50;6208017;28;20240;-72
2023/01/16 08:13:40;;;;;;;1.00;1.00;;;;;;;6.95;nan;99101.38;6177332;28;20233;-71
2023/01/16 08:17:02;;;;;;;1.23;0.77;;;;;;;6.98;nan;99091.22;6214824;28;20237;-71
2023/01/16 08:20:24;;;;;;;4.93;1.00;;;;;;;6.91;nan;99090.16;6192265;28;20236;-72
2023/01/16 08:23:45;;;;;;;1.00;1.00;;;;;;;6.91;nan;99079.44;6196790;28;20241;-72
2023/01/16 08:27:06;;;;;;;0.50;0.50;;;;;;;7.40;nan;99093.97;6219380;28;20260;-73
2023/01/16 08:30:28;;;;;;;1.13;1.03;;;;;;;7.11;nan;99082.75;6214174;28;20240;-73
2023/01/16 08:33:50;;;;;;;2.70;1.30;;;;;;;7.66;nan;99086.69;6186815;28;20743;-70
2023/01/16 08:37:11;;;;;;;2.43;0.70;;;;;;;10.12;nan;99075.25;6217298;28;20240;-71
2023/01/16 08:40:32;;;;;;;1.30;0.80;;;;;;;10.98;nan;99056.91;6218970;28;20604;-70
2023/01/16 08:51:25;;;;;;;1.33;0.80;;;;;;;12.55;nan;99040.03;6224323;28;20232;-71
2023/01/16 08:54:46;;;;;;;1.27;0.70;;;;;;;11.46;nan;99041.19;6210527;28;20232;-71
2023/01/16 08:58:07;;;;;;;0.80;0.80;;;;;;;11.53;nan;99040.28;6206208;28;20232;-70
2023/01/16 09:01:28;;;;;;;1.93;0.50;;;;;;;12.26;nan;99023.94;6200372;28;20232;-70
2023/01/16 09:04:50;;;;;;;1.40;1.30;;;;;;;13.20;nan;99020.81;6206383;28;20602;-70
2023/01/16 09:08:11;;;;;;;2.53;1.27;;;;;;;14.08;nan;99014.56;6210098;28;20335;-72
2023/01/16 09:15:11;;;;;;;1.03;0.93;;;;;;;8.81;nan;99018.59;6190119;28;20237;-73
2023/01/16 09:18:32;;;;;;;0.57;0.57;;;;;;;8.48;nan;99006.22;6209609;28;20354;-74
2023/01/16 09:21:54;;;;;;;0.73;0.70;;;;;;;8.31;nan;99006.38;6218969;28;20237;-73
2023/01/16 09:25:15;;;;;;;0.97;0.97;;;;;;;8.45;nan;98998.47;6193501;28;20573;-75
2023/01/16 09:28:35;;;;;;;1.70;0.93;;;;;;;8.50;nan;98985.41;6198339;28;20236;-72
2023/01/16 09:31:56;;;;;;;0.80;0.80;;;;;;;8.36;nan;98978.03;6218073;28;20232;-72
2023/01/16 09:35:17;;;;;;;0.80;0.80;;;;;;;9.06;nan;98976.38;6199884;28;20237;-74
2023/01/16 09:38:39;;;;;;;2.37;0.73;;;;;;;8.86;nan;98980.47;6190672;28;20708;-73
2023/01/16 09:46:04;;;;;;;0.87;0.87;;;;;;;8.38;nan;98967.13;6168515;28;20229;-73
2023/01/16 09:49:29;;;;;;;2.00;0.80;;;;;;;7.38;nan;98963.78;6210342;28;20232;-72
2023/01/16 10:00:23;;;;;;;2.20;0.90;;;;;;;7.30;nan;98947.69;6153694;28;20237;-75
2023/01/16 10:03:44;;;;;;;0.97;0.93;;;;;;;7.28;nan;98935.28;6211809;28;20614;-72
2023/01/16 10:07:45;;;;;;;5.73;1.00;;;;;;;8.02;nan;98934.38;6219623;28;20233;-72
2023/01/16 10:11:14;;;;;;;1.40;1.30;;;;;;;8.51;nan;98925.31;6218679;28;20240;-73
2023/01/16 10:15:06;;;;;;;2.23;2.03;;;;;;;8.00;nan;98929.19;6201073;28;20228;-73
2023/01/16 10:18:36;;;;;;;1.43;1.33;;;;;;;7.51;nan;98913.22;6198638;28;20229;-73
2023/01/16 10:22:19;;;;;;;2.07;0.60;;;;;;;7.69;nan;98914.75;6213980;28;20240;-72
2023/01/16 10:25:46;;;;;;;2.00;1.40;;;;;;;7.47;nan;98896.63;6215149;28;20561;-70
2023/01/16 10:29:21;;;;;;;1.03;1.03;;;;;;;7.28;nan;98899.59;6192996;28;20623;-71
2023/01/16 10:32:49;;;;;;;0.70;0.70;;;;;;;7.53;nan;98892.47;6200717;28;20240;-70
2023/01/16 10:39:50;;;;;;;0.87;0.87;;;;;;;7.86;nan;98865.47;6139902;28;20274;-75
2023/01/16 10:50:36;;;;;;;5.17;0.90;;;;;;;8.51;nan;98851.97;6149942;28;21406;-72
2023/01/16 10:53:58;;;;;;;1.13;0.80;;;;;;;9.34;nan;98847.69;6150896;28;20862;-72
2023/01/16 10:57:21;;;;;;;1.00;1.00;;;;;;;9.95;nan;98835.97;6136393;28;20262;-72
2023/01/16 11:00:44;;;;;;;0.67;0.67;;;;;;;10.51;nan;98819.25;6166523;28;20242;-73
2023/01/16 11:04:06;;;;;;;1.10;0.80;;;;;;;10.62;nan;98817.94;6135631;28;20241;-71
2023/01/16 11:07:30;;;;;;;0.83;0.83;;;;;;;10.67;nan;98810.13;6131772;28;20313;-71
2023/01/16 11:10:51;;;;;;;2.67;0.93;;;;;;;11.00;nan;98779.84;6141385;28;20515;-72
2023/01/16 11:21:33;;;;;;;3.03;1.07;;;;;;;9.64;nan;98753.50;6136933;28;20242;-71
2023/01/16 11:24:58;;;;;;;1.47;0.93;;;;;;;9.11;nan;98744.69;6138234;28;20230;-71
2023/01/16 11:28:23;;;;;;;1.57;0.90;;;;;;;9.07;nan;98738.00;6130451;28;20226;-72
2023/01/16 11:31:49;;;;;;;1.97;1.87;;;;;;;9.44;nan;98728.13;6143835;28;21362;-71
2023/01/16 11:35:13;;;;;;;2.07;1.20;;;;;;;9.10;nan;98716.13;6159841;28;20231;-72
2023/01/16 11:38:37;;;;;;;1.57;1.20;;;;;;;9.13;nan;98710.41;6147518;28;20254;-72
2023/01/16 11:46:01;;;;;;;0.77;0.77;;;;;;;9.54;nan;98687.53;6152429;28;20505;-74
2023/01/16 11:46:03;;;;;;;1.67;0.97;;;;;;;9.43;nan;98675.34;6146041;28;20231;-73
2023/01/16 11:49:27;;;;;;;0.93;0.77;;;;;;;9.40;nan;98667.66;6154628;28;20381;-73
2023/01/16 11:52:48;;;;;;;2.17;0.97;;;;;;;8.99;nan;98654.78;6129394;28;20349;-73
2023/01/16 11:56:30;;;;;;;2.27;0.97;;;;;;;9.14;nan;98647.56;6124344;28;20231;-71
2023/01/16 12:00:23;;;;;;;1.87;0.80;;;;;;;9.54;nan;98631.88;6127753;28;20230;-74
2023/01/16 12:04:00;;;;;;;1.23;0.90;;;;;;;9.43;nan;98604.59;6139279;28;20238;-73
2023/01/16 12:07:27;;;;;;;0.73;0.73;;;;;;;9.68;nan;98606.00;6108702;28;20239;-74
2023/01/16 12:10:58;;;;;;;1.57;1.07;;;;;;;9.77;nan;98593.28;6129914;28;20247;-75
2023/01/16 12:14:28;;;;;;;3.60;0.90;;;;;;;10.22;nan;98583.09;6137237;28;20312;-73
2023/01/16 12:18:11;;;;;;;1.13;1.03;;;;;;;11.08;nan;98561.31;6137451;28;20625;-75
2023/01/16 12:21:36;;;;;;;0.70;0.70;;;;;;;10.80;nan;98559.66;6134187;28;20804;-74
2023/01/16 12:25:06;;;;;;;0.77;0.50;;;;;;;10.07;nan;98554.53;6145728;28;20911;-73
2023/01/16 12:28:37;;;;;;;1.13;1.10;;;;;;;10.07;nan;98538.38;6134841;28;20234;-72
2023/01/16 12:32:26;;;;;;;1.03;1.00;;;;;;;9.87;nan;98529.22;6147473;28;20238;-72
2023/01/16 12:35:58;;;;;;;2.13;0.80;;;;;;;9.51;nan;98523.84;6111318;28;20683;-72
2023/01/16 12:39:29;;;;;;;1.33;1.23;;;;;;;9.73;nan;98505.91;6126333;28;20234;-74
2023/01/16 12:46:47;;;;;;;1.17;0.80;;;;;;;9.18;nan;98488.44;6133396;28;20234;-75
2023/01/16 12:50:28;;;;;;;1.00;1.00;;;;;;;9.59;nan;98475.31;6145112;28;21104;-73
2023/01/16 12:54:21;;;;;;;1.17;1.07;;;;;;;9.38;nan;98457.28;6140784;28;20646;-74
2023/01/16 12:57:55;;;;;;;1.77;1.67;;;;;;;8.77;nan;98450.44;6129556;28;20234;-72
2023/01/16 13:01:20;;;;;;;0.87;0.87;;;;;;;8.74;nan;98447.31;6147760;28;20242;-71
2023/01/16 13:04:46;;;;;;;1.90;1.17;;;;;;;8.81;nan;98454.44;6136249;28;20254;-73
2023/01/16 13:08:16;;;;;;;0.80;0.80;;;;;;;8.53;nan;98441.81;6132643;28;20238;-71
2023/01/16 13:15:30;;;;;;;0.80;0.70;;;;;;;8.69;nan;98438.97;6126454;28;20317;-74
2023/01/16 13:18:54;;;;;;;5.13;1.53;;;;;;;8.46;nan;98438.19;6138841;28;20229;-77
2023/01/16 13:22:24;;;;;;;1.07;0.97;;;;;;;8.25;nan;98424.59;6143330;28;20333;-75
2023/01/16 13:25:47;;;;;;;0.53;0.53;;;;;;;8.64;nan;98412.66;6147842;28;20253;-75
2023/01/16 13:29:14;;;;;;;2.10;0.70;;;;;;;8.31;nan;98418.53;6145763;28;20238;-75
2023/01/16 13:32:39;;;;;;;0.60;0.60;;;;;;;8.18;nan;98421.00;6135848;28;20238;-72
2023/01/16 13:36:12;;;;;;;2.23;0.80;;;;;;;7.82;nan;98410.06;6146271;28;20817;-74
2023/01/16 13:40:06;;;;;;;0.70;0.70;;;;;;;8.24;nan;98404.16;6148697;28;20241;-73
2023/01/16 13:47:16;;;;;;;2.43;2.23;;;;;;;8.26;nan;98396.78;6145284;28;20238;-74
2023/01/16 13:50:37;;;;;;;1.27;1.07;;;;;;;8.45;nan;98380.97;6154295;28;20246;-74
2023/01/16 13:54:02;;;;;;;2.77;1.07;;;;;;;8.21;nan;98375.00;6145005;28;20233;-74
2023/01/16 13:57:26;;;;;;;1.17;0.90;;;;;;;8.04;nan;98361.75;6128869;28;20737;-69
2023/01/16 14:00:57;;;;;;;1.13;0.80;;;;;;;8.43;nan;98363.38;6153027;28;20257;-73
2023/01/16 14:04:33;;;;;;;1.57;1.43;;;;;;;8.24;nan;98355.84;6143031;28;20244;-75
2023/01/16 14:12:00;;;;;;;1.10;1.00;;;;;;;8.44;nan;98351.63;6138366;28;20230;-76
2023/01/16 14:19:21;;;;;;;1.60;0.80;;;;;;;7.90;nan;98332.19;6134102;28;20234;-72
2023/01/16 14:26:42;;;;;;;0.60;0.60;;;;;;;7.70;nan;98337.22;6140461;28;20238;-78
2023/01/16 14:30:05;;;;;;;0.63;0.63;;;;;;;7.79;nan;98322.75;6148797;28;20397;-73
2023/01/16 14:33:28;;;;;;;0.87;0.87;;;;;;;8.18;nan;98316.34;6140358;28;20234;-75
2023/01/16 14:36:51;;;;;;;1.60;0.70;;;;;;;8.05;nan;98304.38;6153273;28;20348;-74
2023/01/16 14:55:10;;;;;;;0.73;0.73;;;;;;;7.81;nan;98306.47;6148292;28;20288;-73
2023/01/16 14:55:48;;;;;;;0.90;0.90;;;;;;;7.80;nan;98292.22;6152423;28;20290;-74
2023/01/16 14:59:14;;;;;;;1.33;0.90;;;;;;;7.55;nan;98293.44;6154783;28;20242;-74
2023/01/16 15:02:38;;;;;;;2.40;2.30;;;;;;;7.91;nan;98280.19;6145441;28;20687;-74
2023/01/16 15:06:04;;;;;;;0.70;0.67;;;;;;;7.68;nan;98271.38;6155186;28;20238;-72
2023/01/16 15:09:29;;;;;;;2.07;0.90;;;;;;;7.65;nan;98259.19;6138489;28;20238;-77
2023/01/16 15:12:52;;;;;;;1.20;0.70;;;;;;;7.68;nan;98245.41;6158935;28;20240;-75
2023/01/16 15:21:57;;;;;;;1.60;0.90;;;;;;;7.92;nan;98255.06;6162866;28;20271;-70
2023/01/16 15:23:57;;;;;;;3.33;1.27;;;;;;;8.09;nan;98238.59;6151619;28;20234;-74
2023/01/16 15:27:24;;;;;;;1.97;0.90;;;;;;;7.89;nan;98234.81;6126736;28;20243;-73
2023/01/16 15:30:53;;;;;;;2.87;1.33;;;;;;;7.92;nan;98229.09;6161052;28;20241;-77
2023/01/16 15:34:24;;;;;;;4.27;1.33;;;;;;;8.00;nan;98234.34;6142888;28;22387;-75
2023/01/16 15:37:49;;;;;;;1.33;1.23;;;;;;;7.73;nan;98236.81;6145970;28;20277;-75
2023/01/16 15:41:11;;;;;;;1.00;0.80;;;;;;;7.58;nan;98223.41;6159163;28;20572;-75
2023/01/16 15:48:26;;;;;;;1.27;0.80;;;;;;;7.63;nan;98212.13;6143709;28;22225;-74
2023/01/16 15:51:51;;;;;;;1.70;1.60;;;;;;;7.79;nan;98191.34;6154640;28;20258;-73
2023/01/16 15:55:18;;;;;;;1.03;1.00;;;;;;;7.57;nan;98200.28;6157778;28;20238;-74
2023/01/16 15:58:42;;;;;;;0.80;0.80;;;;;;;7.63;nan;98191.53;6159092;28;20238;-75
2023/01/16 16:02:17;;;;;;;0.70;0.70;;;;;;;7.55;nan;98198.81;6132119;28;20239;-75
2023/01/16 16:05:40;;;;;;;4.20;1.00;;;;;;;7.59;nan;98182.19;6141616;28;20242;-75
2023/01/16 16:09:02;;;;;;;1.37;0.77;;;;;;;7.57;nan;98184.19;6142780;28;20254;-74
2023/01/16 16:12:24;;;;;;;0.97;0.97;;;;;;;7.77;nan;98189.84;6147964;28;20325;-75
2023/01/16 16:19:34;;;;;;;6.27;1.10;;;;;;;7.57;nan;98172.66;6159695;28;20237;-74
2023/01/16 16:23:01;;;;;;;1.43;1.43;;;;;;;7.64;nan;98158.31;6147288;28;20233;-75
2023/01/16 16:26:22;;;;;;;1.10;1.00;;;;;;;7.54;nan;98163.13;6156130;28;20577;-74
2023/01/16 16:29:49;;;;;;;1.43;1.23;;;;;;;7.68;nan;98164.13;6153857;28;20480;-74
2023/01/16 16:33:16;;;;;;;1.80;0.87;;;;;;;7.44;nan;98157.22;6139494;28;20604;-75
2023/01/16 16:36:41;;;;;;;1.80;1.63;;;;;;;7.54;nan;98157.75;6132817;28;20239;-75
2023/01/16 16:40:12;;;;;;;1.97;1.83;;;;;;;7.79;nan;98145.75;6147685;28;20234;-76
2023/01/16 16:43:46;;;;;;;1.80;0.97;;;;;;;7.61;nan;98137.25;6151233;28;20249;-75
2023/01/16 16:47:24;;;;;;;1.20;1.07;;;;;;;7.48;nan;98139.75;6147825;28;20284;-76
2023/01/16 16:50:45;;;;;;;1.00;0.90;;;;;;;7.57;nan;98135.13;6146913;28;20230;-75
2023/01/16 16:54:12;;;;;;;0.77;0.77;;;;;;;7.56;nan;98128.09;6147421;28;20253;-75
2023/01/16 16:57:43;;;;;;;2.53;1.50;;;;;;;7.45;nan;98120.53;6141015;28;20615;-74
2023/01/16 17:01:04;;;;;;;1.00;0.87;;;;;;;7.67;nan;98120.44;6164102;28;25213;-75
2023/01/16 17:04:25;;;;;;;1.23;1.13;;;;;;;7.74;nan;98123.19;6136462;28;20237;-76
2023/01/16 17:07:47;;;;;;;1.00;0.97;;;;;;;7.82;nan;98113.19;6144826;28;20238;-75
2023/01/16 17:11:11;;;;;;;1.00;1.00;;;;;;;7.58;nan;98109.97;6134015;28;20234;-73
2023/01/16 17:14:34;;;;;;;0.73;0.73;;;;;;;7.38;nan;98108.88;6133301;28;20238;-74
2023/01/16 17:17:57;;;;;;;2.00;1.07;;;;;;;7.70;nan;98106.63;6146610;28;20603;-74
2023/01/16 17:21:19;;;;;;;1.63;1.37;;;;;;;7.96;nan;98095.41;6162701;28;20317;-74
2023/01/16 17:24:40;;;;;;;2.27;1.00;;;;;;;7.61;nan;98097.03;6159228;28;20246;-75
2023/01/16 17:28:01;;;;;;;0.63;0.63;;;;;;;7.68;nan;98086.38;6150742;28;20257;-75
2023/01/16 17:31:23;;;;;;;3.13;1.23;;;;;;;7.47;nan;98081.78;6153519;28;20237;-76
2023/01/16 17:34:44;;;;;;;1.20;1.00;;;;;;;7.54;nan;98072.00;6156832;28;20250;-74
2023/01/16 17:38:10;;;;;;;1.00;1.00;;;;;;;7.46;nan;98077.44;6134506;28;20254;-74
2023/01/16 17:49:05;;;;;;;0.87;0.87;;;;;;;7.50;nan;98068.03;6135806;28;20242;-74
2023/01/16 17:52:26;;;;;;;1.40;1.10;;;;;;;7.77;nan;98051.25;6139521;28;20258;-75
2023/01/16 17:55:51;;;;;;;1.47;1.37;;;;;;;7.78;nan;98047.53;6153426;28;20231;-74
2023/01/16 17:59:12;;;;;;;1.10;1.00;;;;;;;7.64;nan;98052.94;6142186;28;20234;-75
2023/01/16 18:02:34;;;;;;;1.27;1.23;;;;;;;7.35;nan;98059.16;6123502;28;20235;-74
2023/01/16 18:06:01;;;;;;;1.77;1.67;;;;;;;7.59;nan;98056.19;6159814;28;20238;-74
2023/01/16 18:09:22;;;;;;;1.30;0.93;;;;;;;7.48;nan;98040.56;6144568;28;20230;-74
2023/01/16 18:20:00;;;;;;;1.10;1.07;;;;;;;7.25;nan;98037.16;6148743;28;20241;-73
2023/01/16 18:23:23;;;;;;;1.40;1.30;;;;;;;7.55;nan;98030.75;6142498;28;20631;-75
2023/01/16 18:26:44;;;;;;;3.90;1.40;;;;;;;7.39;nan;98035.47;6148128;28;20231;-74
2023/01/16 18:30:06;;;;;;;1.90;1.10;;;;;;;7.70;nan;98028.03;6145431;28;20230;-74
2023/01/16 18:33:27;;;;;;;1.03;0.83;;;;;;;7.43;nan;98021.53;6132665;28;20230;-74